Time;durP1;ratioP1;P1;durP2;ratioP2;P2;SDS_P1;SDS_P2;PMS_P1;PMS_P2;Temp;Humidity;BMP_temperature;BMP_pressure;BME280_temperature;BME280_humidity;BME280_pressure;Samples;Min_cycle;Max_cycle;Signal;HPM_P1;HPM_P2
2022/04/10 00:00:59;;;;;;;9.50;6.40;;;3.60;99.90;;;;;;2609021;54;20198;-72
2022/04/10 00:03:25;;;;;;;11.10;6.73;;;3.60;99.90;;;;;;2610628;54;20404;-73
2022/04/10 00:05:52;;;;;;;9.77;6.30;;;3.60;99.90;;;;;;2610442;47;20174;-72
2022/04/10 00:08:18;;;;;;;7.10;6.47;;;3.60;99.90;;;;;;2611840;54;20169;-71
2022/04/10 00:10:44;;;;;;;16.03;6.00;;;3.50;99.90;;;;;;2609461;54;20507;-72
2022/04/10 00:13:11;;;;;;;11.40;6.43;;;3.50;99.90;;;;;;2612318;54;20412;-72
2022/04/10 00:15:37;;;;;;;7.57;5.83;;;3.50;99.90;;;;;;2609606;54;20430;-72
2022/04/10 00:18:04;;;;;;;6.83;5.77;;;3.50;99.90;;;;;;2611449;54;21071;-72
2022/04/10 00:20:29;;;;;;;10.93;6.03;;;3.50;99.90;;;;;;2610075;54;20449;-72
2022/04/10 00:22:55;;;;;;;12.53;6.10;;;3.50;99.90;;;;;;2610295;54;20468;-72
2022/04/10 00:25:21;;;;;;;14.63;5.77;;;3.50;99.90;;;;;;2605015;54;20293;-72
2022/04/10 00:27:48;;;;;;;6.97;6.30;;;3.50;99.90;;;;;;2604719;47;20435;-72
2022/04/10 00:30:17;;;;;;;6.93;5.40;;;3.40;99.90;;;;;;2599553;54;20453;-71
2022/04/10 00:32:43;;;;;;;9.37;6.90;;;3.50;99.90;;;;;;2600288;47;21619;-71
2022/04/10 00:35:10;;;;;;;8.30;6.60;;;3.50;99.90;;;;;;2602877;54;20419;-71
2022/04/10 00:37:38;;;;;;;8.50;5.17;;;3.50;99.90;;;;;;2607099;54;20428;-71
2022/04/10 00:40:05;;;;;;;12.77;6.10;;;3.40;99.90;;;;;;2606420;46;20439;-72
2022/04/10 00:42:39;;;;;;;17.03;6.30;;;3.30;99.90;;;;;;2601201;54;20451;-72
2022/04/10 00:45:07;;;;;;;9.07;5.70;;;3.30;99.90;;;;;;2607580;54;20424;-72
2022/04/10 00:47:34;;;;;;;11.40;6.63;;;3.10;99.90;;;;;;2602356;54;20395;-72
2022/04/10 00:50:04;;;;;;;6.50;5.90;;;2.90;99.90;;;;;;2610129;54;20423;-72
2022/04/10 00:52:30;;;;;;;10.40;5.80;;;2.90;99.90;;;;;;2609235;47;20565;-72
2022/04/10 00:54:59;;;;;;;8.30;6.57;;;2.90;99.90;;;;;;2608945;39;20761;-71
2022/04/10 00:57:25;;;;;;;12.10;6.83;;;2.80;99.90;;;;;;2608842;54;20399;-71
2022/04/10 00:59:51;;;;;;;8.43;6.00;;;2.80;99.90;;;;;;2610189;54;20952;-72
2022/04/10 01:02:17;;;;;;;8.23;6.60;;;2.80;99.90;;;;;;2609007;54;20452;-73
2022/04/10 01:04:46;;;;;;;8.67;6.80;;;2.70;99.90;;;;;;2610675;31;20890;-73
2022/04/10 01:07:13;;;;;;;9.47;6.70;;;2.80;99.90;;;;;;2609559;39;20823;-72
2022/04/10 01:09:42;;;;;;;7.37;6.67;;;2.90;99.90;;;;;;2610650;47;20428;-72
2022/04/10 01:12:09;;;;;;;10.23;7.23;;;2.80;99.90;;;;;;2610232;54;20432;-72
2022/04/10 01:14:36;;;;;;;13.53;6.00;;;2.90;99.90;;;;;;2607754;47;20434;-73
2022/04/10 01:17:02;;;;;;;10.17;6.70;;;2.60;99.90;;;;;;2608081;54;20521;-74
2022/04/10 01:19:29;;;;;;;13.83;7.77;;;2.60;99.90;;;;;;2609331;46;20439;-72
2022/04/10 01:22:03;;;;;;;15.77;7.53;;;2.60;99.90;;;;;;2611509;54;20406;-72
2022/04/10 01:24:30;;;;;;;8.40;6.80;;;2.40;99.90;;;;;;2605777;46;20882;-72
2022/04/10 01:26:56;;;;;;;13.53;8.57;;;2.50;99.90;;;;;;2611219;47;21161;-72
2022/04/10 01:29:27;;;;;;;18.13;7.70;;;2.40;99.90;;;;;;2608582;39;21002;-73
2022/04/10 01:31:53;;;;;;;8.57;7.67;;;2.40;99.90;;;;;;2608872;54;20407;-73
2022/04/10 01:34:18;;;;;;;8.67;7.00;;;2.40;99.90;;;;;;2608710;47;20480;-73
2022/04/10 01:36:45;;;;;;;12.90;7.97;;;2.30;99.90;;;;;;2609884;54;20173;-72
2022/04/10 01:39:12;;;;;;;7.43;6.40;;;2.40;99.90;;;;;;2609554;47;20420;-72
2022/04/10 01:41:39;;;;;;;9.10;8.10;;;2.60;99.90;;;;;;2608313;39;20915;-72
2022/04/10 01:44:07;;;;;;;17.10;8.20;;;2.50;99.90;;;;;;2609426;54;20419;-72
2022/04/10 01:46:34;;;;;;;11.27;7.87;;;2.50;99.90;;;;;;2610995;39;20888;-73
2022/04/10 01:49:01;;;;;;;11.67;7.47;;;2.60;99.90;;;;;;2609649;54;21000;-72
2022/04/10 01:51:27;;;;;;;7.80;7.00;;;2.50;99.90;;;;;;2607768;39;20786;-72
2022/04/10 01:53:55;;;;;;;10.83;7.80;;;2.50;99.90;;;;;;2606263;54;20960;-73
2022/04/10 01:56:22;;;;;;;12.43;6.90;;;2.50;99.90;;;;;;2610551;47;20407;-73
2022/04/10 01:58:52;;;;;;;11.80;8.30;;;2.50;99.90;;;;;;2609902;47;20435;-72
2022/04/10 02:01:18;;;;;;;10.63;7.63;;;2.60;99.90;;;;;;2606935;47;21213;-74
2022/04/10 02:03:47;;;;;;;8.70;7.57;;;2.60;99.90;;;;;;2607455;54;20409;-73
2022/04/10 02:06:14;;;;;;;8.90;7.63;;;2.60;99.90;;;;;;2608454;54;20423;-73
2022/04/10 02:08:43;;;;;;;9.33;6.67;;;2.40;99.90;;;;;;2609100;54;20438;-72
2022/04/10 02:11:19;;;;;;;11.20;7.53;;;2.40;99.90;;;;;;2610912;47;20437;-74
2022/04/10 02:13:46;;;;;;;10.90;7.57;;;2.30;99.90;;;;;;2606936;54;20405;-73
2022/04/10 02:16:17;;;;;;;11.03;8.00;;;2.20;99.90;;;;;;2607410;47;20580;-73
2022/04/10 02:18:46;;;;;;;11.60;8.57;;;2.10;99.90;;;;;;2607794;47;20406;-72
2022/04/10 02:21:12;;;;;;;12.07;7.60;;;2.20;99.90;;;;;;2609071;54;20422;-73
2022/04/10 02:23:39;;;;;;;11.20;8.67;;;2.40;99.90;;;;;;2608352;54;20415;-73
2022/04/10 02:26:07;;;;;;;9.33;7.23;;;2.30;99.90;;;;;;2608696;47;20423;-73
2022/04/10 02:28:32;;;;;;;11.93;7.80;;;2.20;99.90;;;;;;2608282;54;20419;-72
2022/04/10 02:30:58;;;;;;;14.50;7.80;;;2.20;99.90;;;;;;2609065;54;20491;-72
2022/04/10 02:33:24;;;;;;;14.37;8.70;;;2.10;99.90;;;;;;2607506;54;20411;-73
2022/04/10 02:35:50;;;;;;;11.43;8.20;;;2.10;99.90;;;;;;2605764;47;20680;-72
2022/04/10 02:38:17;;;;;;;7.80;6.80;;;2.10;99.90;;;;;;2605850;47;20454;-73
2022/04/10 02:40:45;;;;;;;10.70;8.07;;;2.20;99.90;;;;;;2610535;47;20426;-73
2022/04/10 02:43:14;;;;;;;16.57;8.87;;;2.20;99.90;;;;;;2608582;54;20441;-73
2022/04/10 02:45:43;;;;;;;11.43;8.07;;;2.20;99.90;;;;;;2609302;47;20391;-73
2022/04/10 02:48:10;;;;;;;10.13;7.57;;;2.20;99.90;;;;;;2608363;47;20540;-72
2022/04/10 02:50:37;;;;;;;9.10;7.30;;;2.20;99.90;;;;;;2609154;54;20405;-72
2022/04/10 02:53:03;;;;;;;9.63;7.30;;;2.20;99.90;;;;;;2609320;54;20418;-72
2022/04/10 02:55:29;;;;;;;19.50;8.80;;;2.10;99.90;;;;;;2611719;47;20442;-73
2022/04/10 02:57:55;;;;;;;11.00;8.37;;;2.10;99.90;;;;;;2609402;51;20407;-72
2022/04/10 03:00:21;;;;;;;9.70;8.00;;;2.10;99.90;;;;;;2608728;54;20313;-72
2022/04/10 03:02:47;;;;;;;11.37;7.73;;;2.00;99.90;;;;;;2608782;39;20660;-73
2022/04/10 03:05:14;;;;;;;12.87;7.70;;;1.90;99.90;;;;;;2611467;39;20554;-72
2022/04/10 03:07:42;;;;;;;14.10;9.10;;;1.90;99.90;;;;;;2609168;54;20523;-73
2022/04/10 03:10:09;;;;;;;10.90;8.13;;;1.90;99.90;;;;;;2609644;47;21047;-72
2022/04/10 03:12:35;;;;;;;12.87;8.00;;;2.10;99.90;;;;;;2609527;54;20491;-72
2022/04/10 03:15:03;;;;;;;12.57;9.83;;;2.10;99.90;;;;;;2606976;54;20430;-73
2022/04/10 03:17:29;;;;;;;12.83;8.50;;;2.00;99.90;;;;;;2608355;54;20414;-71
2022/04/10 03:19:56;;;;;;;13.33;8.60;;;2.10;99.90;;;;;;2609702;51;20458;-73
2022/04/10 03:22:22;;;;;;;17.50;8.57;;;2.10;99.90;;;;;;2608106;51;20441;-72
2022/04/10 03:24:48;;;;;;;9.80;7.73;;;2.10;99.90;;;;;;2608819;47;20402;-72
2022/04/10 03:27:14;;;;;;;12.33;7.83;;;2.20;99.90;;;;;;2610467;54;20174;-72
2022/04/10 03:29:41;;;;;;;10.43;9.37;;;2.30;99.90;;;;;;2610122;54;20411;-73
2022/04/10 03:32:07;;;;;;;11.37;8.40;;;2.30;99.90;;;;;;2609603;54;20403;-72
2022/04/10 03:34:33;;;;;;;10.67;8.97;;;2.30;99.90;;;;;;2610876;51;20167;-72
2022/04/10 03:37:00;;;;;;;15.90;8.50;;;2.20;99.90;;;;;;2610251;54;20410;-72
2022/04/10 03:39:26;;;;;;;11.00;9.10;;;2.30;99.90;;;;;;2608538;47;20424;-73
2022/04/10 03:41:54;;;;;;;13.50;9.30;;;2.50;99.90;;;;;;2610125;39;20881;-72
2022/04/10 03:44:20;;;;;;;17.63;9.23;;;2.50;99.90;;;;;;2607837;54;20927;-72
2022/04/10 03:46:46;;;;;;;17.47;10.30;;;2.40;99.90;;;;;;2607038;54;20438;-73
2022/04/10 03:49:12;;;;;;;17.93;8.37;;;2.70;99.90;;;;;;2611518;46;20186;-72
2022/04/10 03:51:38;;;;;;;10.63;8.20;;;2.60;99.90;;;;;;2610717;47;20454;-73
2022/04/10 03:54:04;;;;;;;22.47;8.80;;;2.50;99.90;;;;;;2610178;54;20908;-72
2022/04/10 03:56:30;;;;;;;25.33;8.80;;;2.50;99.90;;;;;;2609120;39;20222;-72
2022/04/10 03:58:57;;;;;;;10.27;9.20;;;2.50;99.90;;;;;;2609811;54;21003;-72
2022/04/10 04:01:24;;;;;;;12.97;8.60;;;2.50;99.90;;;;;;2609114;54;20407;-72
2022/04/10 04:03:51;;;;;;;13.13;7.20;;;2.40;99.90;;;;;;2610675;47;20555;-73
2022/04/10 04:06:17;;;;;;;12.83;8.20;;;2.40;99.90;;;;;;2612102;51;20394;-72
2022/04/10 04:08:43;;;;;;;13.57;7.50;;;2.30;99.90;;;;;;2611147;47;21177;-73
2022/04/10 04:11:10;;;;;;;11.73;8.20;;;2.20;99.90;;;;;;2611561;46;20419;-72
2022/04/10 04:13:40;;;;;;;11.47;7.80;;;2.20;99.90;;;;;;2609968;47;20450;-72
2022/04/10 04:16:07;;;;;;;9.30;8.07;;;2.20;99.90;;;;;;2609160;54;20945;-72
2022/04/10 04:18:34;;;;;;;15.93;8.37;;;2.10;99.90;;;;;;2612133;54;20423;-73
2022/04/10 04:21:02;;;;;;;20.60;8.77;;;2.00;99.90;;;;;;2611218;54;20438;-72
2022/04/10 04:23:28;;;;;;;8.87;7.97;;;2.10;99.90;;;;;;2607208;39;20895;-71
2022/04/10 04:25:54;;;;;;;28.23;9.47;;;2.00;99.90;;;;;;2609447;54;20453;-72
2022/04/10 04:28:20;;;;;;;9.77;8.77;;;2.00;99.90;;;;;;2610184;46;20450;-73
2022/04/10 04:30:46;;;;;;;16.13;9.70;;;2.20;99.90;;;;;;2608510;54;20399;-72
2022/04/10 04:33:12;;;;;;;11.50;9.30;;;2.10;99.90;;;;;;2608179;54;20205;-73
2022/04/10 04:35:38;;;;;;;9.20;8.30;;;2.00;99.90;;;;;;2610214;47;20424;-72
2022/04/10 04:38:04;;;;;;;19.23;9.10;;;2.00;99.90;;;;;;2610129;54;20205;-72
2022/04/10 04:40:31;;;;;;;11.87;9.40;;;2.00;99.90;;;;;;2608394;39;20788;-71
2022/04/10 04:42:57;;;;;;;11.60;8.27;;;1.90;99.90;;;;;;2608851;39;21383;-72
2022/04/10 04:45:25;;;;;;;15.50;8.73;;;1.80;99.90;;;;;;2609032;54;20171;-73
2022/04/10 04:47:59;;;;;;;11.43;8.67;;;1.90;99.90;;;;;;2609811;39;20932;-73
2022/04/10 04:50:26;;;;;;;15.83;8.23;;;1.90;99.90;;;;;;2608599;54;20459;-72
2022/04/10 04:52:53;;;;;;;15.17;9.00;;;1.80;99.90;;;;;;2609132;39;20861;-73
2022/04/10 04:55:20;;;;;;;10.53;9.47;;;1.80;99.90;;;;;;2611298;47;20427;-72
2022/04/10 04:57:46;;;;;;;17.30;9.37;;;1.80;99.90;;;;;;2610338;54;20431;-72
2022/04/10 05:00:13;;;;;;;15.30;8.90;;;1.80;99.90;;;;;;2610570;39;20582;-72
2022/04/10 05:02:46;;;;;;;11.47;9.60;;;1.80;99.90;;;;;;2610579;54;20431;-73
2022/04/10 05:05:12;;;;;;;13.33;9.33;;;1.80;99.90;;;;;;2608663;54;20398;-73
2022/04/10 05:07:38;;;;;;;14.20;10.53;;;1.80;99.90;;;;;;2609405;54;20174;-72
2022/04/10 05:10:04;;;;;;;11.30;8.13;;;1.80;99.90;;;;;;2609971;47;20454;-72
2022/04/10 05:12:34;;;;;;;13.87;8.53;;;1.90;99.90;;;;;;2607934;54;20463;-72
2022/04/10 05:15:04;;;;;;;15.53;10.43;;;2.00;99.90;;;;;;2609338;54;20439;-73
2022/04/10 05:17:30;;;;;;;13.43;9.40;;;2.00;99.90;;;;;;2610741;47;20501;-73
2022/04/10 05:19:57;;;;;;;15.20;10.10;;;2.10;99.90;;;;;;2610520;47;20415;-71
2022/04/10 05:22:23;;;;;;;12.23;9.43;;;2.20;99.90;;;;;;2610584;51;20410;-73
2022/04/10 05:24:58;;;;;;;31.30;10.00;;;2.20;99.90;;;;;;2609780;47;20457;-72
2022/04/10 05:27:25;;;;;;;13.70;9.93;;;2.20;99.90;;;;;;2610291;54;22750;-73
2022/04/10 05:29:51;;;;;;;13.77;9.30;;;2.30;99.90;;;;;;2607852;47;20163;-74
2022/04/10 05:32:17;;;;;;;12.97;9.87;;;2.40;99.90;;;;;;2606598;47;21031;-72
2022/04/10 05:34:44;;;;;;;18.47;11.30;;;2.50;99.90;;;;;;2607505;54;20399;-72
2022/04/10 05:37:10;;;;;;;15.70;10.80;;;2.60;99.90;;;;;;2607145;47;20982;-72
2022/04/10 05:39:43;;;;;;;12.93;11.47;;;2.90;99.90;;;;;;2606243;54;20450;-74
2022/04/10 05:42:10;;;;;;;12.17;10.40;;;3.10;99.90;;;;;;2609532;54;20432;-71
2022/04/10 05:44:36;;;;;;;13.90;10.40;;;3.40;99.90;;;;;;2609137;47;20428;-73
2022/04/10 05:47:04;;;;;;;11.00;9.60;;;3.70;99.90;;;;;;2608148;54;20431;-73
2022/04/10 05:49:30;;;;;;;16.80;10.27;;;4.10;99.90;;;;;;2608112;47;20477;-73
2022/04/10 05:51:55;;;;;;;14.70;10.07;;;4.20;99.90;;;;;;2609780;54;20395;-72
2022/04/10 05:54:21;;;;;;;10.00;8.80;;;4.50;99.90;;;;;;2609069;51;20171;-72
2022/04/10 05:56:50;;;;;;;13.13;8.87;;;4.80;99.90;;;;;;2607928;54;20403;-72
2022/04/10 05:59:16;;;;;;;10.57;8.80;;;5.20;99.90;;;;;;2609232;51;21159;-73
2022/04/10 06:01:43;;;;;;;16.33;9.40;;;5.50;99.90;;;;;;2608897;54;20438;-72
2022/04/10 06:04:09;;;;;;;12.13;8.10;;;5.70;99.90;;;;;;2609102;47;20461;-73
2022/04/10 06:06:35;;;;;;;12.07;8.70;;;5.80;99.90;;;;;;2609101;54;20424;-73
2022/04/10 06:09:11;;;;;;;14.70;9.00;;;6.10;99.90;;;;;;2609604;54;20444;-72
2022/04/10 06:11:37;;;;;;;20.77;9.70;;;6.20;99.90;;;;;;2608430;47;20408;-73
2022/04/10 06:14:03;;;;;;;11.70;8.83;;;6.30;99.90;;;;;;2611730;51;20449;-72
2022/04/10 06:16:31;;;;;;;16.33;10.90;;;6.70;99.90;;;;;;2608168;47;20425;-74
2022/04/10 06:18:57;;;;;;;10.90;8.03;;;6.80;99.90;;;;;;2607323;46;20459;-73
2022/04/10 06:21:24;;;;;;;10.70;9.13;;;6.90;99.90;;;;;;2604216;54;20408;-73
2022/04/10 06:23:50;;;;;;;19.20;9.50;;;7.10;99.90;;;;;;2607643;54;20427;-74
2022/04/10 06:26:23;;;;;;;13.20;9.23;;;7.10;99.90;;;;;;2608860;39;20795;-73
2022/04/10 06:28:50;;;;;;;11.13;9.53;;;7.00;99.90;;;;;;2608189;39;20935;-73
2022/04/10 06:31:23;;;;;;;12.10;8.50;;;7.10;99.90;;;;;;2608921;54;20998;-73
2022/04/10 06:33:50;;;;;;;11.60;9.10;;;7.40;99.90;;;;;;2607886;54;20441;-71
2022/04/10 06:36:16;;;;;;;15.63;9.50;;;7.60;99.90;;;;;;2608601;39;20590;-73
2022/04/10 06:38:42;;;;;;;10.40;8.90;;;7.70;99.90;;;;;;2608878;46;20514;-73
2022/04/10 06:41:16;;;;;;;12.20;7.80;;;7.90;99.90;;;;;;2606612;54;20424;-73
2022/04/10 06:43:43;;;;;;;10.63;8.17;;;8.00;99.90;;;;;;2604144;54;20444;-72
2022/04/10 06:46:21;;;;;;;11.17;8.00;;;8.20;95.90;;;;;;2607048;46;20449;-73
2022/04/10 06:49:07;;;;;;;10.33;9.10;;;8.30;92.60;;;;;;2608311;47;20428;-73
2022/04/10 06:51:34;;;;;;;12.60;9.60;;;8.50;89.20;;;;;;2605666;54;20428;-73
2022/04/10 06:54:04;;;;;;;13.33;8.73;;;8.70;88.00;;;;;;2609184;54;20531;-72
2022/04/10 06:56:30;;;;;;;8.17;6.70;;;9.10;79.60;;;;;;2606402;54;20465;-73
2022/04/10 06:58:56;;;;;;;10.70;7.47;;;8.90;73.50;;;;;;2610308;54;21035;-73
2022/04/10 07:01:22;;;;;;;11.27;8.70;;;8.70;78.30;;;;;;2610224;47;20447;-73
2022/04/10 07:03:48;;;;;;;9.53;5.90;;;8.80;78.10;;;;;;2608476;54;20219;-74
2022/04/10 07:06:17;;;;;;;15.03;7.43;;;9.10;67.20;;;;;;2609170;54;20989;-73
2022/04/10 07:08:43;;;;;;;11.27;6.77;;;9.10;67.90;;;;;;2607372;54;21104;-74
2022/04/10 07:11:10;;;;;;;15.10;8.00;;;9.20;65.20;;;;;;2608940;47;20430;-73
2022/04/10 07:13:36;;;;;;;8.90;7.00;;;9.20;65.20;;;;;;2610409;47;20461;-72
2022/04/10 07:16:04;;;;;;;7.90;6.20;;;9.20;61.90;;;;;;2610215;54;20403;-73
2022/04/10 07:18:30;;;;;;;10.87;7.70;;;9.30;60.90;;;;;;2609143;39;20832;-73
2022/04/10 07:21:00;;;;;;;13.83;7.60;;;9.30;60.70;;;;;;2610493;39;20516;-72
2022/04/10 07:23:41;;;;;;;13.63;8.20;;;9.70;61.00;;;;;;2608879;51;20545;-71
2022/04/10 07:26:13;;;;;;;16.60;7.97;;;10.40;52.80;;;;;;2610905;54;20250;-72
2022/04/10 07:28:40;;;;;;;10.10;7.30;;;10.00;49.10;;;;;;2609853;47;20887;-73
2022/04/10 07:31:09;;;;;;;10.40;8.07;;;9.80;52.30;;;;;;2610079;54;20871;-72
2022/04/10 07:33:36;;;;;;;13.00;6.20;;;10.00;50.00;;;;;;2608001;54;20414;-72
2022/04/10 07:36:13;;;;;;;9.07;8.20;;;10.20;49.10;;;;;;2608450;54;20553;-72
2022/04/10 07:38:39;;;;;;;11.10;7.03;;;10.60;46.00;;;;;;2607279;47;21197;-72
2022/04/10 07:41:09;;;;;;;13.03;6.70;;;11.10;39.10;;;;;;2606174;54;20435;-72
2022/04/10 07:43:43;;;;;;;13.37;7.50;;;11.20;37.10;;;;;;2608007;46;20474;-72
2022/04/10 07:48:58;;;;;;;14.27;7.73;;;11.40;34.50;;;;;;2609690;54;20831;-71
2022/04/10 07:51:28;;;;;;;10.67;6.67;;;11.10;33.90;;;;;;2608241;54;21010;-72
2022/04/10 07:54:03;;;;;;;8.87;7.80;;;11.20;31.70;;;;;;2607212;39;20942;-72
2022/04/10 07:56:30;;;;;;;12.73;7.57;;;11.50;34.40;;;;;;2608941;54;20432;-72
2022/04/10 07:58:56;;;;;;;12.10;7.20;;;11.90;28.60;;;;;;2608176;54;20404;-72
2022/04/10 08:01:36;;;;;;;10.17;6.77;;;11.60;29.40;;;;;;2608921;46;20899;-72
2022/04/10 08:04:06;;;;;;;9.17;6.60;;;11.60;27.40;;;;;;2604651;47;21062;-71
2022/04/10 08:06:50;;;;;;;9.27;6.77;;;11.60;26.50;;;;;;2601702;54;20442;-72
2022/04/10 08:09:16;;;;;;;10.70;7.80;;;11.30;25.90;;;;;;2603924;46;20431;-73
2022/04/10 08:11:42;;;;;;;10.33;6.20;;;11.40;26.40;;;;;;2605628;54;20703;-73
2022/04/10 08:14:08;;;;;;;8.10;6.77;;;11.40;26.30;;;;;;2610110;39;20574;-73
2022/04/10 08:16:33;;;;;;;8.53;6.03;;;11.60;24.70;;;;;;2609865;54;20182;-73
2022/04/10 08:18:59;;;;;;;15.80;7.57;;;11.80;22.40;;;;;;2611241;47;20705;-73
2022/04/10 08:21:25;;;;;;;12.20;6.50;;;12.00;23.90;;;;;;2608937;54;20242;-73
2022/04/10 08:23:51;;;;;;;12.80;7.87;;;12.40;20.90;;;;;;2608442;54;20619;-73
2022/04/10 08:26:17;;;;;;;6.67;5.40;;;12.50;17.10;;;;;;2608336;54;20166;-74
2022/04/10 08:28:42;;;;;;;6.90;5.17;;;12.30;16.50;;;;;;2608258;54;20189;-73
2022/04/10 08:31:08;;;;;;;10.33;5.70;;;12.40;17.20;;;;;;2607273;47;20431;-73
2022/04/10 08:33:34;;;;;;;9.87;4.77;;;12.50;15.70;;;;;;2610032;39;20640;-73
2022/04/10 08:35:59;;;;;;;8.30;5.10;;;12.70;14.20;;;;;;2609368;54;20495;-72
2022/04/10 08:38:25;;;;;;;13.53;5.17;;;11.90;15.50;;;;;;2609756;54;20159;-72
2022/04/10 08:41:02;;;;;;;8.30;4.90;;;11.30;16.20;;;;;;2613052;39;20582;-72
2022/04/10 08:43:29;;;;;;;7.60;4.87;;;11.40;18.20;;;;;;2613592;54;20222;-72
2022/04/10 08:45:58;;;;;;;9.50;4.40;;;11.90;18.80;;;;;;2613173;54;20394;-73
2022/04/10 08:48:26;;;;;;;6.30;3.97;;;12.30;13.90;;;;;;2612939;54;20961;-73
2022/04/10 08:50:55;;;;;;;4.53;3.67;;;12.10;12.80;;;;;;2611223;54;20503;-72
2022/04/10 08:53:23;;;;;;;8.83;3.80;;;11.50;15.80;;;;;;2608644;54;20514;-73
2022/04/10 08:55:48;;;;;;;4.07;3.70;;;11.90;15.70;;;;;;2610956;54;20468;-73
2022/04/10 08:58:15;;;;;;;5.43;3.83;;;11.90;11.30;;;;;;2611992;54;20427;-74
2022/04/10 09:00:44;;;;;;;9.23;4.00;;;11.00;13.70;;;;;;2610809;54;20478;-73
2022/04/10 09:03:10;;;;;;;8.87;4.70;;;10.80;15.60;;;;;;2610030;54;20571;-72
2022/04/10 09:05:37;;;;;;;8.10;4.60;;;10.60;16.00;;;;;;2610029;54;20960;-72
2022/04/10 09:08:09;;;;;;;4.53;3.93;;;10.20;16.80;;;;;;2612640;54;20995;-72
2022/04/10 09:11:01;;;;;;;4.17;3.43;;;10.10;17.00;;;;;;2608801;39;20763;-72
2022/04/10 09:13:36;;;;;;;4.07;3.67;;;10.10;17.40;;;;;;2607528;54;21054;-73
2022/04/10 09:16:07;;;;;;;5.10;3.90;;;9.90;17.60;;;;;;2609502;54;20408;-73
2022/04/10 09:18:49;;;;;;;5.17;3.97;;;9.60;17.70;;;;;;2612217;47;20434;-72
2022/04/10 09:21:16;;;;;;;4.97;4.47;;;9.50;18.50;;;;;;2612991;54;20437;-75
2022/04/10 09:23:46;;;;;;;6.17;4.50;;;9.40;20.10;;;;;;2607917;47;20433;-73
2022/04/10 09:26:13;;;;;;;8.03;4.60;;;9.20;22.80;;;;;;2610520;54;20973;-73
2022/04/10 09:28:41;;;;;;;7.03;4.90;;;9.00;25.10;;;;;;2612027;54;20418;-73
2022/04/10 09:31:26;;;;;;;6.50;4.37;;;9.00;27.90;;;;;;2612375;54;20453;-72
2022/04/10 09:33:53;;;;;;;5.37;4.80;;;8.80;36.20;;;;;;2610098;54;20421;-74
2022/04/10 09:36:45;;;;;;;4.90;4.50;;;8.40;50.40;;;;;;2607473;39;21201;-75
2022/04/10 09:39:30;;;;;;;11.67;5.53;;;8.10;65.50;;;;;;2613354;54;20428;-73
2022/04/10 09:42:29;;;;;;;10.20;5.90;;;8.00;66.20;;;;;;2612537;54;21026;-74
2022/04/10 09:44:55;;;;;;;7.57;4.90;;;8.10;75.60;;;;;;2610795;54;20409;-74
2022/04/10 09:47:25;;;;;;;7.60;5.00;;;8.10;74.10;;;;;;2611754;47;20428;-73
2022/04/10 09:49:53;;;;;;;7.50;4.83;;;8.30;79.00;;;;;;2612275;54;20181;-74
2022/04/10 09:52:19;;;;;;;5.37;4.87;;;9.20;68.70;;;;;;2607536;54;20461;-73
2022/04/10 09:54:46;;;;;;;4.90;4.40;;;9.90;53.90;;;;;;2610705;39;20819;-74
2022/04/10 09:57:14;;;;;;;9.10;4.70;;;10.80;43.20;;;;;;2609314;54;20478;-76
2022/04/10 09:59:45;;;;;;;4.10;3.50;;;11.60;28.50;;;;;;2611696;54;20603;-73
2022/04/10 10:02:19;;;;;;;9.30;4.80;;;11.80;16.40;;;;;;2606639;47;20512;-72
2022/04/10 10:04:47;;;;;;;4.40;3.90;;;12.00;12.90;;;;;;2611545;54;20415;-74
2022/04/10 10:07:18;;;;;;;6.30;3.87;;;12.00;10.70;;;;;;2612582;54;20419;-74
2022/04/10 10:09:46;;;;;;;3.33;3.13;;;11.70;12.10;;;;;;2612690;54;20403;-73
2022/04/10 10:12:12;;;;;;;5.47;4.23;;;12.00;11.50;;;;;;2611980;54;20418;-75
2022/04/10 10:14:41;;;;;;;5.00;3.50;;;12.50;9.60;;;;;;2611994;54;20412;-75
2022/04/10 10:17:08;;;;;;;12.93;3.83;;;12.30;10.30;;;;;;2613173;54;21240;-74
2022/04/10 10:19:36;;;;;;;9.63;4.13;;;12.60;9.20;;;;;;2613197;54;20941;-73
2022/04/10 10:22:03;;;;;;;5.30;3.50;;;13.10;5.50;;;;;;2612781;54;20469;-75
2022/04/10 10:24:57;;;;;;;4.60;3.17;;;12.80;1.80;;;;;;2611798;39;20790;-75
2022/04/10 10:28:00;;;;;;;3.77;3.30;;;12.30;3.30;;;;;;2613552;54;20460;-74
2022/04/10 10:30:47;;;;;;;3.10;2.83;;;13.00;2.00;;;;;;2612962;54;20435;-72
2022/04/10 10:33:23;;;;;;;5.17;3.30;;;13.50;1.00;;;;;;2612568;54;20419;-75
2022/04/10 10:35:56;;;;;;;4.30;3.43;;;13.30;1.00;;;;;;2611947;47;20439;-74
2022/04/10 10:38:25;;;;;;;3.00;2.63;;;13.00;1.00;;;;;;2613965;39;20848;-74
2022/04/10 10:40:52;;;;;;;3.90;2.90;;;12.60;1.00;;;;;;2613863;39;20923;-74
2022/04/10 10:43:20;;;;;;;4.57;3.23;;;12.40;1.00;;;;;;2613219;54;20415;-74
2022/04/10 10:45:49;;;;;;;5.30;2.90;;;12.40;1.00;;;;;;2613777;39;20494;-73
2022/04/10 10:48:25;;;;;;;3.07;2.77;;;12.20;1.00;;;;;;2613949;54;20972;-74
2022/04/10 10:50:54;;;;;;;4.13;3.73;;;12.50;1.00;;;;;;2613836;54;20406;-75
2022/04/10 10:53:57;;;;;;;6.40;2.83;;;12.20;1.00;;;;;;2612438;54;20518;-73
2022/04/10 10:56:29;;;;;;;2.97;2.70;;;12.10;1.00;;;;;;2612706;54;20975;-73
2022/04/10 10:59:15;;;;;;;5.60;2.90;;;12.20;1.00;;;;;;2614289;54;20947;-74
2022/04/10 11:02:03;;;;;;;5.97;3.80;;;12.10;1.00;;;;;;2614042;54;20461;-71
2022/04/10 11:04:34;;;;;;;3.17;2.40;;;11.90;1.00;;;;;;2612370;53;20420;-74
2022/04/10 11:07:11;;;;;;;3.40;2.53;;;11.90;1.00;;;;;;2612834;47;20423;-75
2022/04/10 11:09:46;;;;;;;3.90;2.53;;;11.60;1.00;;;;;;2613196;54;21019;-73
2022/04/10 11:12:13;;;;;;;3.27;2.77;;;11.50;1.00;;;;;;2612969;54;20432;-73
2022/04/10 11:14:41;;;;;;;2.90;2.70;;;11.20;2.40;;;;;;2612033;54;20418;-73
2022/04/10 11:17:30;;;;;;;4.80;3.27;;;11.10;3.10;;;;;;2613285;54;20399;-73
2022/04/10 11:20:03;;;;;;;5.13;2.80;;;10.90;3.00;;;;;;2613484;47;20434;-73
2022/04/10 11:22:40;;;;;;;3.20;2.57;;;10.80;2.70;;;;;;2611718;54;20435;-75
2022/04/10 11:25:08;;;;;;;3.33;2.70;;;11.00;4.10;;;;;;2614254;54;20437;-74
2022/04/10 11:27:50;;;;;;;2.60;2.37;;;11.00;2.20;;;;;;2613388;54;20419;-73
2022/04/10 11:30:20;;;;;;;3.50;3.20;;;10.80;1.80;;;;;;2612060;54;20452;-74
2022/04/10 11:33:00;;;;;;;3.53;2.53;;;10.60;2.10;;;;;;2612654;54;21153;-72
2022/04/10 11:35:30;;;;;;;3.23;2.80;;;11.10;1.80;;;;;;2613775;54;20420;-73
2022/04/10 11:37:58;;;;;;;3.90;2.97;;;11.50;1.50;;;;;;2612763;54;20419;-73
2022/04/10 11:40:29;;;;;;;2.50;2.30;;;11.60;1.00;;;;;;2614490;54;20451;-73
2022/04/10 11:42:56;;;;;;;4.70;2.50;;;12.00;1.00;;;;;;2613767;54;20904;-74
2022/04/10 11:45:25;;;;;;;2.50;2.40;;;12.20;1.00;;;;;;2612206;54;20423;-74
2022/04/10 11:47:51;;;;;;;2.47;2.27;;;12.50;1.00;;;;;;2613858;39;20704;-74
2022/04/10 11:50:22;;;;;;;6.30;3.00;;;12.60;1.00;;;;;;2613709;46;20534;-73
2022/04/10 11:53:08;;;;;;;3.33;2.77;;;13.40;1.00;;;;;;2613081;54;20420;-74
2022/04/10 11:55:38;;;;;;;3.23;2.93;;;14.10;1.00;;;;;;2613317;54;20408;-74
2022/04/10 11:58:21;;;;;;;6.30;3.30;;;14.20;1.00;;;;;;2614305;54;20535;-75
2022/04/10 12:00:55;;;;;;;2.73;2.63;;;14.60;1.00;;;;;;2613617;47;20451;-74
2022/04/10 12:03:23;;;;;;;3.50;3.20;;;15.00;1.00;;;;;;2611528;54;20419;-73
2022/04/10 12:05:50;;;;;;;3.70;3.40;;;14.80;1.00;;;;;;2613824;47;20440;-74
2022/04/10 12:08:17;;;;;;;3.37;2.90;;;14.70;1.00;;;;;;2614073;54;20520;-73
2022/04/10 12:10:58;;;;;;;5.00;3.10;;;14.50;1.00;;;;;;2614545;54;20434;-73
2022/04/10 12:13:34;;;;;;;3.00;2.63;;;14.90;1.00;;;;;;2613027;54;20526;-74
2022/04/10 12:16:16;;;;;;;2.83;2.63;;;14.60;1.00;;;;;;2614579;54;20411;-72
2022/04/10 12:18:50;;;;;;;5.10;3.30;;;14.20;1.00;;;;;;2612596;54;20408;-74
2022/04/10 12:21:20;;;;;;;2.87;2.47;;;14.90;1.00;;;;;;2613495;54;20503;-73
2022/04/10 12:23:56;;;;;;;2.90;2.70;;;15.60;1.00;;;;;;2612300;54;20400;-73
2022/04/10 12:26:22;;;;;;;2.40;2.20;;;15.50;1.00;;;;;;2614152;54;20426;-73
2022/04/10 12:28:48;;;;;;;4.40;3.60;;;15.90;1.00;;;;;;2614344;39;20804;-74
2022/04/10 12:31:14;;;;;;;3.10;2.90;;;15.90;1.00;;;;;;2612399;54;20555;-73
2022/04/10 12:33:40;;;;;;;3.10;2.90;;;14.90;1.00;;;;;;2611524;54;20396;-75
2022/04/10 12:36:39;;;;;;;4.60;3.20;;;14.40;1.00;;;;;;2613584;39;20555;-73
2022/04/10 12:39:05;;;;;;;4.03;3.80;;;14.20;1.00;;;;;;2612949;54;20920;-74
2022/04/10 12:41:32;;;;;;;4.00;3.37;;;13.90;1.00;;;;;;2612820;54;20926;-73
2022/04/10 12:44:05;;;;;;;3.07;2.87;;;13.50;1.00;;;;;;2612150;54;20150;-75
2022/04/10 12:46:38;;;;;;;3.10;2.90;;;14.00;1.00;;;;;;2612837;54;20471;-73
2022/04/10 12:49:15;;;;;;;3.40;3.20;;;14.30;1.00;;;;;;2613027;54;20416;-72
2022/04/10 12:51:54;;;;;;;3.77;3.20;;;14.70;1.00;;;;;;2612580;54;20422;-74
2022/04/10 12:54:41;;;;;;;3.20;2.70;;;14.20;1.00;;;;;;2611452;54;20467;-72
2022/04/10 12:57:09;;;;;;;3.10;2.90;;;14.30;1.00;;;;;;2613078;54;20430;-73
2022/04/10 12:59:42;;;;;;;3.03;2.70;;;14.70;1.00;;;;;;2612551;54;20451;-73
2022/04/10 13:02:38;;;;;;;3.03;2.80;;;14.80;1.00;;;;;;2611777;54;20379;-74
2022/04/10 13:05:10;;;;;;;3.00;2.80;;;14.70;1.00;;;;;;2608023;54;20454;-74